sensor_id;sensor_type;location;lat;lon;timestamp;P1;durP1;ratioP1;P2;durP2;ratioP2
5559;SDS011;2803;47.916;8.074;2023-08-30T00:01:25;4.40;;;3.97;;
5559;SDS011;2803;47.916;8.074;2023-08-30T00:03:52;5.97;;;4.93;;
5559;SDS011;2803;47.916;8.074;2023-08-30T00:06:19;5.50;;;4.27;;
5559;SDS011;2803;47.916;8.074;2023-08-30T00:08:48;6.00;;;4.00;;
5559;SDS011;2803;47.916;8.074;2023-08-30T00:11:14;5.70;;;4.50;;
5559;SDS011;2803;47.916;8.074;2023-08-30T00:13:41;7.87;;;5.03;;
5559;SDS011;2803;47.916;8.074;2023-08-30T00:16:08;6.33;;;4.30;;
5559;SDS011;2803;47.916;8.074;2023-08-30T00:18:34;5.70;;;4.47;;
5559;SDS011;2803;47.916;8.074;2023-08-30T00:21:01;7.17;;;5.00;;
5559;SDS011;2803;47.916;8.074;2023-08-30T00:23:28;8.90;;;4.07;;
5559;SDS011;2803;47.916;8.074;2023-08-30T00:25:56;6.00;;;5.00;;
5559;SDS011;2803;47.916;8.074;2023-08-30T00:28:22;8.40;;;5.00;;
5559;SDS011;2803;47.916;8.074;2023-08-30T00:30:52;8.45;;;5.20;;
5559;SDS011;2803;47.916;8.074;2023-08-30T00:33:19;5.67;;;4.43;;
5559;SDS011;2803;47.916;8.074;2023-08-30T00:35:46;8.57;;;5.90;;
5559;SDS011;2803;47.916;8.074;2023-08-30T00:38:12;8.07;;;5.97;;
5559;SDS011;2803;47.916;8.074;2023-08-30T00:40:39;9.90;;;5.80;;
5559;SDS011;2803;47.916;8.074;2023-08-30T00:43:08;9.20;;;6.07;;
5559;SDS011;2803;47.916;8.074;2023-08-30T00:45:35;7.03;;;5.90;;
5559;SDS011;2803;47.916;8.074;2023-08-30T00:48:06;8.10;;;5.40;;
5559;SDS011;2803;47.916;8.074;2023-08-30T00:50:33;6.80;;;5.20;;
5559;SDS011;2803;47.916;8.074;2023-08-30T00:53:00;7.00;;;5.30;;
5559;SDS011;2803;47.916;8.074;2023-08-30T00:55:30;6.80;;;4.60;;
5559;SDS011;2803;47.916;8.074;2023-08-30T00:57:58;8.07;;;5.30;;
5559;SDS011;2803;47.916;8.074;2023-08-30T01:00:26;5.33;;;4.80;;
5559;SDS011;2803;47.916;8.074;2023-08-30T01:02:53;7.80;;;4.90;;
5559;SDS011;2803;47.916;8.074;2023-08-30T01:05:20;7.83;;;5.60;;
5559;SDS011;2803;47.916;8.074;2023-08-30T01:07:47;5.10;;;4.40;;
5559;SDS011;2803;47.916;8.074;2023-08-30T01:10:14;6.40;;;4.50;;
5559;SDS011;2803;47.916;8.074;2023-08-30T01:12:43;11.80;;;4.77;;
5559;SDS011;2803;47.916;8.074;2023-08-30T01:15:13;5.63;;;4.00;;
5559;SDS011;2803;47.916;8.074;2023-08-30T01:17:45;6.37;;;4.23;;
5559;SDS011;2803;47.916;8.074;2023-08-30T01:20:14;5.00;;;4.00;;
5559;SDS011;2803;47.916;8.074;2023-08-30T01:22:45;11.10;;;4.47;;
5559;SDS011;2803;47.916;8.074;2023-08-30T01:25:23;9.93;;;3.97;;
5559;SDS011;2803;47.916;8.074;2023-08-30T01:27:58;8.90;;;5.23;;
5559;SDS011;2803;47.916;8.074;2023-08-30T01:30:28;5.90;;;4.50;;
5559;SDS011;2803;47.916;8.074;2023-08-30T01:32:55;4.97;;;4.47;;
5559;SDS011;2803;47.916;8.074;2023-08-30T01:35:23;7.27;;;5.80;;
5559;SDS011;2803;47.916;8.074;2023-08-30T01:37:55;8.13;;;5.30;;
5559;SDS011;2803;47.916;8.074;2023-08-30T01:40:22;6.83;;;5.60;;
5559;SDS011;2803;47.916;8.074;2023-08-30T01:42:49;9.40;;;5.73;;
5559;SDS011;2803;47.916;8.074;2023-08-30T01:45:18;6.03;;;5.33;;
5559;SDS011;2803;47.916;8.074;2023-08-30T01:47:46;6.70;;;5.17;;
5559;SDS011;2803;47.916;8.074;2023-08-30T01:50:14;5.83;;;4.90;;
5559;SDS011;2803;47.916;8.074;2023-08-30T01:52:42;7.47;;;4.33;;
5559;SDS011;2803;47.916;8.074;2023-08-30T01:55:08;5.00;;;4.37;;
5559;SDS011;2803;47.916;8.074;2023-08-30T01:57:37;6.40;;;4.30;;
5559;SDS011;2803;47.916;8.074;2023-08-30T02:00:04;4.43;;;3.90;;
5559;SDS011;2803;47.916;8.074;2023-08-30T02:02:33;4.90;;;3.77;;
5559;SDS011;2803;47.916;8.074;2023-08-30T02:04:58;5.30;;;4.53;;
5559;SDS011;2803;47.916;8.074;2023-08-30T02:07:28;5.97;;;4.17;;
5559;SDS011;2803;47.916;8.074;2023-08-30T02:10:01;4.20;;;3.70;;
5559;SDS011;2803;47.916;8.074;2023-08-30T02:12:34;7.00;;;3.70;;
5559;SDS011;2803;47.916;8.074;2023-08-30T02:15:05;4.07;;;3.33;;
5559;SDS011;2803;47.916;8.074;2023-08-30T02:17:35;4.00;;;3.60;;
5559;SDS011;2803;47.916;8.074;2023-08-30T02:20:04;6.23;;;3.97;;
5559;SDS011;2803;47.916;8.074;2023-08-30T02:22:32;5.30;;;4.30;;
5559;SDS011;2803;47.916;8.074;2023-08-30T02:24:59;4.67;;;3.97;;
5559;SDS011;2803;47.916;8.074;2023-08-30T02:27:26;5.80;;;4.80;;
5559;SDS011;2803;47.916;8.074;2023-08-30T02:29:53;6.53;;;5.10;;
5559;SDS011;2803;47.916;8.074;2023-08-30T02:32:19;6.73;;;4.60;;
5559;SDS011;2803;47.916;8.074;2023-08-30T02:34:50;5.70;;;4.23;;
5559;SDS011;2803;47.916;8.074;2023-08-30T02:37:17;5.37;;;4.03;;
5559;SDS011;2803;47.916;8.074;2023-08-30T02:39:44;9.50;;;4.90;;
5559;SDS011;2803;47.916;8.074;2023-08-30T02:42:11;5.07;;;4.37;;
5559;SDS011;2803;47.916;8.074;2023-08-30T02:44:37;6.73;;;3.93;;
5559;SDS011;2803;47.916;8.074;2023-08-30T02:47:04;4.80;;;3.50;;
5559;SDS011;2803;47.916;8.074;2023-08-30T02:49:31;3.70;;;3.40;;
5559;SDS011;2803;47.916;8.074;2023-08-30T02:51:59;4.63;;;3.73;;
5559;SDS011;2803;47.916;8.074;2023-08-30T02:54:26;4.33;;;3.93;;
5559;SDS011;2803;47.916;8.074;2023-08-30T02:56:53;4.57;;;3.60;;
5559;SDS011;2803;47.916;8.074;2023-08-30T02:59:20;4.37;;;3.90;;
5559;SDS011;2803;47.916;8.074;2023-08-30T03:01:46;3.40;;;3.07;;
5559;SDS011;2803;47.916;8.074;2023-08-30T03:04:13;5.17;;;3.70;;
5559;SDS011;2803;47.916;8.074;2023-08-30T03:06:40;3.57;;;3.27;;
5559;SDS011;2803;47.916;8.074;2023-08-30T03:09:07;6.30;;;3.80;;
5559;SDS011;2803;47.916;8.074;2023-08-30T03:11:34;4.90;;;3.23;;
5559;SDS011;2803;47.916;8.074;2023-08-30T03:14:01;4.73;;;3.57;;
5559;SDS011;2803;47.916;8.074;2023-08-30T03:16:27;12.10;;;3.70;;
5559;SDS011;2803;47.916;8.074;2023-08-30T03:18:54;7.40;;;2.90;;
5559;SDS011;2803;47.916;8.074;2023-08-30T03:21:21;3.40;;;2.90;;
5559;SDS011;2803;47.916;8.074;2023-08-30T03:23:48;3.90;;;3.20;;
5559;SDS011;2803;47.916;8.074;2023-08-30T03:26:16;3.80;;;3.40;;
5559;SDS011;2803;47.916;8.074;2023-08-30T03:28:43;3.83;;;3.53;;
5559;SDS011;2803;47.916;8.074;2023-08-30T03:31:10;3.97;;;2.77;;
5559;SDS011;2803;47.916;8.074;2023-08-30T03:33:38;3.90;;;3.47;;
5559;SDS011;2803;47.916;8.074;2023-08-30T03:36:06;4.23;;;3.40;;
5559;SDS011;2803;47.916;8.074;2023-08-30T03:38:34;4.30;;;3.43;;
5559;SDS011;2803;47.916;8.074;2023-08-30T03:41:00;5.40;;;4.43;;
5559;SDS011;2803;47.916;8.074;2023-08-30T03:43:29;4.73;;;4.10;;
5559;SDS011;2803;47.916;8.074;2023-08-30T03:45:56;5.43;;;3.60;;
5559;SDS011;2803;47.916;8.074;2023-08-30T03:48:23;5.73;;;4.50;;
5559;SDS011;2803;47.916;8.074;2023-08-30T03:50:49;3.93;;;3.50;;
5559;SDS011;2803;47.916;8.074;2023-08-30T03:53:16;5.67;;;4.33;;
5559;SDS011;2803;47.916;8.074;2023-08-30T03:55:42;5.90;;;5.17;;
5559;SDS011;2803;47.916;8.074;2023-08-30T03:58:09;5.27;;;3.80;;
5559;SDS011;2803;47.916;8.074;2023-08-30T04:00:37;5.37;;;4.30;;
5559;SDS011;2803;47.916;8.074;2023-08-30T04:03:04;7.90;;;5.50;;
5559;SDS011;2803;47.916;8.074;2023-08-30T04:05:33;5.23;;;4.73;;
5559;SDS011;2803;47.916;8.074;2023-08-30T04:08:00;5.10;;;4.60;;
5559;SDS011;2803;47.916;8.074;2023-08-30T04:10:27;4.67;;;4.20;;
5559;SDS011;2803;47.916;8.074;2023-08-30T04:12:54;7.37;;;3.93;;
5559;SDS011;2803;47.916;8.074;2023-08-30T04:15:21;5.20;;;4.47;;
5559;SDS011;2803;47.916;8.074;2023-08-30T04:17:48;4.50;;;4.10;;
5559;SDS011;2803;47.916;8.074;2023-08-30T04:20:15;5.33;;;4.33;;
5559;SDS011;2803;47.916;8.074;2023-08-30T04:22:42;6.00;;;5.07;;
5559;SDS011;2803;47.916;8.074;2023-08-30T04:25:08;5.53;;;4.90;;
5559;SDS011;2803;47.916;8.074;2023-08-30T04:27:35;4.80;;;3.77;;
5559;SDS011;2803;47.916;8.074;2023-08-30T04:30:02;8.63;;;4.37;;
5559;SDS011;2803;47.916;8.074;2023-08-30T04:32:29;10.10;;;3.23;;
5559;SDS011;2803;47.916;8.074;2023-08-30T04:34:57;4.70;;;3.70;;
5559;SDS011;2803;47.916;8.074;2023-08-30T04:37:23;3.50;;;3.20;;
5559;SDS011;2803;47.916;8.074;2023-08-30T04:39:50;11.60;;;4.47;;
5559;SDS011;2803;47.916;8.074;2023-08-30T04:42:17;4.10;;;3.70;;
5559;SDS011;2803;47.916;8.074;2023-08-30T04:44:43;3.43;;;3.03;;
5559;SDS011;2803;47.916;8.074;2023-08-30T04:47:10;4.90;;;3.73;;
5559;SDS011;2803;47.916;8.074;2023-08-30T04:49:36;6.10;;;3.40;;
5559;SDS011;2803;47.916;8.074;2023-08-30T04:52:05;7.03;;;3.43;;
5559;SDS011;2803;47.916;8.074;2023-08-30T04:54:32;3.77;;;2.87;;
5559;SDS011;2803;47.916;8.074;2023-08-30T04:56:58;3.73;;;3.40;;
5559;SDS011;2803;47.916;8.074;2023-08-30T04:59:25;4.07;;;3.60;;
5559;SDS011;2803;47.916;8.074;2023-08-30T05:01:52;3.63;;;3.30;;
5559;SDS011;2803;47.916;8.074;2023-08-30T05:04:18;4.47;;;3.97;;
5559;SDS011;2803;47.916;8.074;2023-08-30T05:06:45;7.30;;;4.20;;
5559;SDS011;2803;47.916;8.074;2023-08-30T05:09:13;4.77;;;4.00;;
5559;SDS011;2803;47.916;8.074;2023-08-30T05:11:40;5.10;;;4.20;;
5559;SDS011;2803;47.916;8.074;2023-08-30T05:14:07;7.10;;;3.80;;
5559;SDS011;2803;47.916;8.074;2023-08-30T05:16:37;6.13;;;3.60;;
5559;SDS011;2803;47.916;8.074;2023-08-30T05:19:04;4.33;;;3.40;;
5559;SDS011;2803;47.916;8.074;2023-08-30T05:21:31;4.10;;;3.33;;
5559;SDS011;2803;47.916;8.074;2023-08-30T05:23:58;3.37;;;3.07;;
5559;SDS011;2803;47.916;8.074;2023-08-30T05:26:26;10.30;;;3.47;;
5559;SDS011;2803;47.916;8.074;2023-08-30T05:28:52;2.87;;;2.60;;
5559;SDS011;2803;47.916;8.074;2023-08-30T05:31:19;5.03;;;3.37;;
5559;SDS011;2803;47.916;8.074;2023-08-30T05:33:46;3.47;;;3.17;;
5559;SDS011;2803;47.916;8.074;2023-08-30T05:36:12;4.37;;;3.33;;
5559;SDS011;2803;47.916;8.074;2023-08-30T05:38:39;3.73;;;2.73;;
5559;SDS011;2803;47.916;8.074;2023-08-30T05:41:07;4.63;;;3.30;;
5559;SDS011;2803;47.916;8.074;2023-08-30T05:43:35;4.07;;;2.87;;
5559;SDS011;2803;47.916;8.074;2023-08-30T05:46:01;3.00;;;2.70;;
5559;SDS011;2803;47.916;8.074;2023-08-30T05:48:28;3.57;;;2.70;;
5559;SDS011;2803;47.916;8.074;2023-08-30T05:50:55;3.83;;;3.10;;
5559;SDS011;2803;47.916;8.074;2023-08-30T05:53:22;4.87;;;2.80;;
5559;SDS011;2803;47.916;8.074;2023-08-30T05:55:48;2.90;;;2.60;;
5559;SDS011;2803;47.916;8.074;2023-08-30T05:58:15;5.03;;;2.43;;
5559;SDS011;2803;47.916;8.074;2023-08-30T06:00:44;3.03;;;2.73;;
5559;SDS011;2803;47.916;8.074;2023-08-30T06:03:11;3.70;;;2.73;;
5559;SDS011;2803;47.916;8.074;2023-08-30T06:05:38;2.90;;;2.60;;
5559;SDS011;2803;47.916;8.074;2023-08-30T06:08:04;2.93;;;2.43;;
5559;SDS011;2803;47.916;8.074;2023-08-30T06:10:33;3.03;;;2.50;;
5559;SDS011;2803;47.916;8.074;2023-08-30T06:12:59;3.43;;;2.70;;
5559;SDS011;2803;47.916;8.074;2023-08-30T06:15:26;3.77;;;2.83;;
5559;SDS011;2803;47.916;8.074;2023-08-30T06:17:54;3.10;;;2.50;;
5559;SDS011;2803;47.916;8.074;2023-08-30T06:20:20;3.10;;;2.33;;
5559;SDS011;2803;47.916;8.074;2023-08-30T06:22:47;3.30;;;2.60;;
5559;SDS011;2803;47.916;8.074;2023-08-30T06:25:14;3.40;;;2.13;;
5559;SDS011;2803;47.916;8.074;2023-08-30T06:27:41;2.40;;;2.20;;
5559;SDS011;2803;47.916;8.074;2023-08-30T06:30:08;6.20;;;2.80;;
5559;SDS011;2803;47.916;8.074;2023-08-30T06:32:36;2.80;;;2.03;;
5559;SDS011;2803;47.916;8.074;2023-08-30T06:35:04;2.70;;;2.50;;
5559;SDS011;2803;47.916;8.074;2023-08-30T06:37:30;6.80;;;2.37;;
5559;SDS011;2803;47.916;8.074;2023-08-30T06:39:57;3.90;;;2.07;;
5559;SDS011;2803;47.916;8.074;2023-08-30T06:42:24;3.57;;;2.40;;
5559;SDS011;2803;47.916;8.074;2023-08-30T06:44:50;4.37;;;2.13;;
5559;SDS011;2803;47.916;8.074;2023-08-30T06:47:17;2.30;;;2.10;;
5559;SDS011;2803;47.916;8.074;2023-08-30T06:49:44;3.33;;;2.60;;
5559;SDS011;2803;47.916;8.074;2023-08-30T06:52:12;13.60;;;2.90;;
5559;SDS011;2803;47.916;8.074;2023-08-30T06:54:38;2.70;;;2.37;;
5559;SDS011;2803;47.916;8.074;2023-08-30T06:57:05;3.10;;;2.80;;
5559;SDS011;2803;47.916;8.074;2023-08-30T06:59:32;4.03;;;2.40;;
5559;SDS011;2803;47.916;8.074;2023-08-30T07:01:58;3.13;;;2.13;;
5559;SDS011;2803;47.916;8.074;2023-08-30T07:04:25;4.27;;;2.63;;
5559;SDS011;2803;47.916;8.074;2023-08-30T07:06:53;3.23;;;2.53;;
5559;SDS011;2803;47.916;8.074;2023-08-30T07:09:21;5.60;;;2.93;;
5559;SDS011;2803;47.916;8.074;2023-08-30T07:11:53;3.30;;;2.20;;
5559;SDS011;2803;47.916;8.074;2023-08-30T07:14:20;2.40;;;2.20;;
5559;SDS011;2803;47.916;8.074;2023-08-30T07:16:47;2.40;;;2.20;;
5559;SDS011;2803;47.916;8.074;2023-08-30T07:19:14;2.60;;;2.37;;
5559;SDS011;2803;47.916;8.074;2023-08-30T07:21:41;7.07;;;2.60;;
5559;SDS011;2803;47.916;8.074;2023-08-30T07:24:08;3.93;;;2.20;;
5559;SDS011;2803;47.916;8.074;2023-08-30T07:26:36;3.13;;;2.57;;
5559;SDS011;2803;47.916;8.074;2023-08-30T07:29:03;6.97;;;2.50;;
5559;SDS011;2803;47.916;8.074;2023-08-30T07:31:31;3.27;;;2.30;;
5559;SDS011;2803;47.916;8.074;2023-08-30T07:33:58;2.77;;;2.30;;
5559;SDS011;2803;47.916;8.074;2023-08-30T07:36:25;2.77;;;2.10;;
5559;SDS011;2803;47.916;8.074;2023-08-30T07:38:51;3.67;;;2.40;;
5559;SDS011;2803;47.916;8.074;2023-08-30T07:41:18;3.67;;;2.23;;
5559;SDS011;2803;47.916;8.074;2023-08-30T07:43:46;2.40;;;2.20;;
5559;SDS011;2803;47.916;8.074;2023-08-30T07:46:13;5.10;;;2.20;;
5559;SDS011;2803;47.916;8.074;2023-08-30T07:48:39;2.60;;;2.20;;
5559;SDS011;2803;47.916;8.074;2023-08-30T07:51:06;3.47;;;2.13;;
5559;SDS011;2803;47.916;8.074;2023-08-30T07:53:32;4.10;;;2.23;;
5559;SDS011;2803;47.916;8.074;2023-08-30T07:55:59;2.27;;;2.10;;
5559;SDS011;2803;47.916;8.074;2023-08-30T07:58:26;4.63;;;2.10;;
5559;SDS011;2803;47.916;8.074;2023-08-30T08:00:53;2.50;;;2.30;;
5559;SDS011;2803;47.916;8.074;2023-08-30T08:03:20;5.77;;;2.90;;
5559;SDS011;2803;47.916;8.074;2023-08-30T08:05:47;4.93;;;2.10;;
5559;SDS011;2803;47.916;8.074;2023-08-30T08:08:14;3.73;;;2.60;;
5559;SDS011;2803;47.916;8.074;2023-08-30T08:10:41;2.37;;;2.10;;
5559;SDS011;2803;47.916;8.074;2023-08-30T08:13:08;3.17;;;1.83;;
5559;SDS011;2803;47.916;8.074;2023-08-30T08:15:35;5.80;;;2.20;;
5559;SDS011;2803;47.916;8.074;2023-08-30T08:18:03;3.57;;;1.73;;
5559;SDS011;2803;47.916;8.074;2023-08-30T08:20:30;2.30;;;1.83;;
5559;SDS011;2803;47.916;8.074;2023-08-30T08:22:58;1.87;;;1.77;;
5559;SDS011;2803;47.916;8.074;2023-08-30T08:25:24;4.70;;;2.43;;
5559;SDS011;2803;47.916;8.074;2023-08-30T08:27:51;2.97;;;1.70;;
5559;SDS011;2803;47.916;8.074;2023-08-30T08:30:18;4.50;;;1.93;;
5559;SDS011;2803;47.916;8.074;2023-08-30T08:32:45;4.23;;;1.80;;
5559;SDS011;2803;47.916;8.074;2023-08-30T08:35:14;3.10;;;2.10;;
5559;SDS011;2803;47.916;8.074;2023-08-30T08:37:41;5.00;;;2.17;;
5559;SDS011;2803;47.916;8.074;2023-08-30T08:40:08;2.30;;;2.10;;
5559;SDS011;2803;47.916;8.074;2023-08-30T08:42:36;2.70;;;2.20;;
5559;SDS011;2803;47.916;8.074;2023-08-30T08:45:03;3.00;;;2.27;;
5559;SDS011;2803;47.916;8.074;2023-08-30T08:47:30;6.13;;;2.60;;
5559;SDS011;2803;47.916;8.074;2023-08-30T08:49:57;3.57;;;2.10;;
5559;SDS011;2803;47.916;8.074;2023-08-30T08:52:27;11.60;;;2.73;;
5559;SDS011;2803;47.916;8.074;2023-08-30T09:04:42;2.37;;;2.17;;
5559;SDS011;2803;47.916;8.074;2023-08-30T09:07:09;3.17;;;2.17;;
5559;SDS011;2803;47.916;8.074;2023-08-30T09:09:37;2.23;;;2.00;;
5559;SDS011;2803;47.916;8.074;2023-08-30T09:12:04;3.80;;;1.87;;
5559;SDS011;2803;47.916;8.074;2023-08-30T09:14:31;4.27;;;2.07;;
5559;SDS011;2803;47.916;8.074;2023-08-30T09:16:58;2.83;;;1.80;;
5559;SDS011;2803;47.916;8.074;2023-08-30T09:19:26;2.07;;;1.80;;
5559;SDS011;2803;47.916;8.074;2023-08-30T09:21:53;3.63;;;2.10;;
5559;SDS011;2803;47.916;8.074;2023-08-30T09:24:20;2.50;;;1.80;;
5559;SDS011;2803;47.916;8.074;2023-08-30T09:26:49;2.30;;;1.93;;
5559;SDS011;2803;47.916;8.074;2023-08-30T09:29:18;2.17;;;1.97;;
5559;SDS011;2803;47.916;8.074;2023-08-30T09:31:45;2.63;;;2.10;;
5559;SDS011;2803;47.916;8.074;2023-08-30T09:34:12;3.27;;;2.10;;
5559;SDS011;2803;47.916;8.074;2023-08-30T09:36:40;3.50;;;2.63;;
5559;SDS011;2803;47.916;8.074;2023-08-30T09:39:08;4.73;;;2.50;;
5559;SDS011;2803;47.916;8.074;2023-08-30T09:41:35;3.63;;;2.43;;
5559;SDS011;2803;47.916;8.074;2023-08-30T09:44:08;4.70;;;2.40;;
5559;SDS011;2803;47.916;8.074;2023-08-30T09:46:39;3.10;;;2.80;;
5559;SDS011;2803;47.916;8.074;2023-08-30T09:49:07;5.60;;;2.40;;
5559;SDS011;2803;47.916;8.074;2023-08-30T09:51:35;3.30;;;3.00;;
5559;SDS011;2803;47.916;8.074;2023-08-30T09:54:04;3.57;;;3.20;;
5559;SDS011;2803;47.916;8.074;2023-08-30T09:56:31;4.23;;;3.30;;
5559;SDS011;2803;47.916;8.074;2023-08-30T09:59:00;4.17;;;3.63;;
5559;SDS011;2803;47.916;8.074;2023-08-30T10:01:30;4.30;;;3.90;;
5559;SDS011;2803;47.916;8.074;2023-08-30T10:03:59;4.10;;;3.70;;
5559;SDS011;2803;47.916;8.074;2023-08-30T10:06:27;4.13;;;3.73;;
5559;SDS011;2803;47.916;8.074;2023-08-30T10:08:55;4.00;;;3.53;;
5559;SDS011;2803;47.916;8.074;2023-08-30T10:11:23;3.70;;;3.23;;
5559;SDS011;2803;47.916;8.074;2023-08-30T10:13:50;6.83;;;3.50;;
5559;SDS011;2803;47.916;8.074;2023-08-30T10:16:18;4.00;;;3.60;;
5559;SDS011;2803;47.916;8.074;2023-08-30T10:18:47;3.40;;;3.10;;
5559;SDS011;2803;47.916;8.074;2023-08-30T10:21:19;3.73;;;3.43;;
5559;SDS011;2803;47.916;8.074;2023-08-30T10:23:46;4.90;;;4.10;;
5559;SDS011;2803;47.916;8.074;2023-08-30T10:26:16;5.60;;;3.70;;
5559;SDS011;2803;47.916;8.074;2023-08-30T10:28:45;5.50;;;3.90;;
5559;SDS011;2803;47.916;8.074;2023-08-30T10:31:13;4.03;;;3.63;;
5559;SDS011;2803;47.916;8.074;2023-08-30T10:33:48;9.23;;;3.63;;
5559;SDS011;2803;47.916;8.074;2023-08-30T10:36:23;5.40;;;3.80;;
5559;SDS011;2803;47.916;8.074;2023-08-30T10:38:50;4.00;;;3.37;;
5559;SDS011;2803;47.916;8.074;2023-08-30T10:41:20;5.90;;;3.77;;
5559;SDS011;2803;47.916;8.074;2023-08-30T10:43:49;4.30;;;3.90;;
5559;SDS011;2803;47.916;8.074;2023-08-30T10:46:28;6.10;;;4.17;;
5559;SDS011;2803;47.916;8.074;2023-08-30T10:49:07;4.93;;;4.50;;
5559;SDS011;2803;47.916;8.074;2023-08-30T10:51:36;5.07;;;4.57;;
5559;SDS011;2803;47.916;8.074;2023-08-30T10:54:12;5.67;;;5.00;;
5559;SDS011;2803;47.916;8.074;2023-08-30T10:56:45;6.80;;;4.80;;
5559;SDS011;2803;47.916;8.074;2023-08-30T10:59:15;10.40;;;5.50;;
5559;SDS011;2803;47.916;8.074;2023-08-30T11:01:43;12.80;;;5.50;;
5559;SDS011;2803;47.916;8.074;2023-08-30T11:04:14;10.05;;;5.80;;
5559;SDS011;2803;47.916;8.074;2023-08-30T11:06:42;10.50;;;6.23;;
5559;SDS011;2803;47.916;8.074;2023-08-30T11:09:10;8.37;;;6.40;;
5559;SDS011;2803;47.916;8.074;2023-08-30T11:11:39;16.70;;;7.47;;
5559;SDS011;2803;47.916;8.074;2023-08-30T11:14:07;11.73;;;7.33;;
5559;SDS011;2803;47.916;8.074;2023-08-30T11:16:34;11.00;;;7.10;;
5559;SDS011;2803;47.916;8.074;2023-08-30T11:19:03;9.10;;;7.60;;
5559;SDS011;2803;47.916;8.074;2023-08-30T11:21:34;11.57;;;7.87;;
5559;SDS011;2803;47.916;8.074;2023-08-30T12:03:19;6.77;;;3.20;;
5559;SDS011;2803;47.916;8.074;2023-08-30T12:05:46;5.00;;;3.43;;
5559;SDS011;2803;47.916;8.074;2023-08-30T12:08:20;6.03;;;2.80;;
5559;SDS011;2803;47.916;8.074;2023-08-30T12:10:49;8.73;;;3.43;;
5559;SDS011;2803;47.916;8.074;2023-08-30T12:13:21;9.20;;;3.17;;
5559;SDS011;2803;47.916;8.074;2023-08-30T12:15:48;4.07;;;3.00;;
5559;SDS011;2803;47.916;8.074;2023-08-30T12:18:15;3.67;;;2.77;;
5559;SDS011;2803;47.916;8.074;2023-08-30T12:20:50;3.80;;;2.67;;
5559;SDS011;2803;47.916;8.074;2023-08-30T12:23:19;3.17;;;2.87;;
5559;SDS011;2803;47.916;8.074;2023-08-30T12:25:56;6.13;;;3.07;;
5559;SDS011;2803;47.916;8.074;2023-08-30T12:28:25;3.73;;;3.03;;
5559;SDS011;2803;47.916;8.074;2023-08-30T12:30:52;5.55;;;2.85;;
5559;SDS011;2803;47.916;8.074;2023-08-30T12:43:09;4.90;;;3.27;;
5559;SDS011;2803;47.916;8.074;2023-08-30T13:05:12;1.80;;;1.70;;
5559;SDS011;2803;47.916;8.074;2023-08-30T13:07:39;2.43;;;1.80;;
5559;SDS011;2803;47.916;8.074;2023-08-30T13:10:05;2.30;;;1.67;;
5559;SDS011;2803;47.916;8.074;2023-08-30T13:12:33;2.23;;;1.93;;
5559;SDS011;2803;47.916;8.074;2023-08-30T13:15:00;1.90;;;1.70;;
5559;SDS011;2803;47.916;8.074;2023-08-30T13:17:27;3.80;;;1.97;;
5559;SDS011;2803;47.916;8.074;2023-08-30T13:19:55;2.20;;;2.00;;
5559;SDS011;2803;47.916;8.074;2023-08-30T13:22:23;2.80;;;1.57;;
5559;SDS011;2803;47.916;8.074;2023-08-30T13:24:49;2.50;;;1.60;;
5559;SDS011;2803;47.916;8.074;2023-08-30T13:27:17;1.80;;;1.23;;
5559;SDS011;2803;47.916;8.074;2023-08-30T13:29:43;2.27;;;1.67;;
5559;SDS011;2803;47.916;8.074;2023-08-30T13:32:10;2.00;;;1.70;;
5559;SDS011;2803;47.916;8.074;2023-08-30T13:34:37;3.60;;;1.60;;
5559;SDS011;2803;47.916;8.074;2023-08-30T13:37:06;1.80;;;1.70;;
5559;SDS011;2803;47.916;8.074;2023-08-30T13:39:32;1.93;;;1.60;;
5559;SDS011;2803;47.916;8.074;2023-08-30T13:41:59;2.77;;;2.00;;
5559;SDS011;2803;47.916;8.074;2023-08-30T13:44:25;4.60;;;1.87;;
5559;SDS011;2803;47.916;8.074;2023-08-30T13:46:52;3.00;;;1.63;;
5559;SDS011;2803;47.916;8.074;2023-08-30T13:49:18;1.53;;;1.43;;
5559;SDS011;2803;47.916;8.074;2023-08-30T13:51:45;2.20;;;1.60;;
5559;SDS011;2803;47.916;8.074;2023-08-30T13:54:13;3.37;;;1.53;;
5559;SDS011;2803;47.916;8.074;2023-08-30T13:56:40;3.10;;;1.90;;
5559;SDS011;2803;47.916;8.074;2023-08-30T13:59:07;1.67;;;1.57;;
5559;SDS011;2803;47.916;8.074;2023-08-30T14:01:33;2.00;;;1.83;;
5559;SDS011;2803;47.916;8.074;2023-08-30T14:04:01;5.07;;;1.83;;
5559;SDS011;2803;47.916;8.074;2023-08-30T14:06:29;2.30;;;2.10;;
5559;SDS011;2803;47.916;8.074;2023-08-30T14:08:57;1.87;;;1.77;;
5559;SDS011;2803;47.916;8.074;2023-08-30T14:11:25;3.13;;;1.60;;
5559;SDS011;2803;47.916;8.074;2023-08-30T14:13:52;1.97;;;1.60;;
5559;SDS011;2803;47.916;8.074;2023-08-30T14:16:19;4.90;;;2.17;;
5559;SDS011;2803;47.916;8.074;2023-08-30T14:18:45;1.93;;;1.77;;
5559;SDS011;2803;47.916;8.074;2023-08-30T14:21:12;1.67;;;1.57;;
5559;SDS011;2803;47.916;8.074;2023-08-30T14:23:39;2.20;;;1.53;;
5559;SDS011;2803;47.916;8.074;2023-08-30T14:26:06;2.20;;;1.60;;
5559;SDS011;2803;47.916;8.074;2023-08-30T14:28:36;3.20;;;1.80;;
5559;SDS011;2803;47.916;8.074;2023-08-30T14:31:03;1.97;;;1.37;;
5559;SDS011;2803;47.916;8.074;2023-08-30T14:33:33;2.67;;;1.53;;
5559;SDS011;2803;47.916;8.074;2023-08-30T14:35:59;2.87;;;1.93;;
5559;SDS011;2803;47.916;8.074;2023-08-30T14:38:27;3.00;;;1.50;;
5559;SDS011;2803;47.916;8.074;2023-08-30T14:40:55;1.37;;;1.27;;
5559;SDS011;2803;47.916;8.074;2023-08-30T14:43:22;2.60;;;1.80;;
5559;SDS011;2803;47.916;8.074;2023-08-30T14:45:50;2.70;;;1.43;;
5559;SDS011;2803;47.916;8.074;2023-08-30T14:48:17;2.90;;;1.63;;
5559;SDS011;2803;47.916;8.074;2023-08-30T14:50:43;2.83;;;1.40;;
5559;SDS011;2803;47.916;8.074;2023-08-30T14:53:16;3.37;;;1.50;;
5559;SDS011;2803;47.916;8.074;2023-08-30T14:55:43;2.63;;;1.10;;
5559;SDS011;2803;47.916;8.074;2023-08-30T14:58:11;6.00;;;1.53;;
5559;SDS011;2803;47.916;8.074;2023-08-30T15:00:37;2.77;;;1.53;;
5559;SDS011;2803;47.916;8.074;2023-08-30T15:03:05;3.50;;;1.60;;
5559;SDS011;2803;47.916;8.074;2023-08-30T15:05:32;1.60;;;1.40;;
5559;SDS011;2803;47.916;8.074;2023-08-30T15:07:59;6.00;;;1.50;;
5559;SDS011;2803;47.916;8.074;2023-08-30T15:10:25;5.37;;;1.60;;
5559;SDS011;2803;47.916;8.074;2023-08-30T15:12:52;2.77;;;1.77;;
5559;SDS011;2803;47.916;8.074;2023-08-30T15:15:19;1.53;;;1.17;;
5559;SDS011;2803;47.916;8.074;2023-08-30T15:17:46;7.40;;;1.60;;
5559;SDS011;2803;47.916;8.074;2023-08-30T15:20:14;4.47;;;1.63;;
5559;SDS011;2803;47.916;8.074;2023-08-30T15:22:40;3.03;;;1.80;;
5559;SDS011;2803;47.916;8.074;2023-08-30T15:25:07;3.53;;;1.50;;
5559;SDS011;2803;47.916;8.074;2023-08-30T15:27:34;1.90;;;1.63;;
5559;SDS011;2803;47.916;8.074;2023-08-30T15:42:24;3.90;;;1.80;;
5559;SDS011;2803;47.916;8.074;2023-08-30T15:44:50;2.30;;;1.70;;
5559;SDS011;2803;47.916;8.074;2023-08-30T15:47:17;2.37;;;1.70;;
5559;SDS011;2803;47.916;8.074;2023-08-30T16:28:53;6.70;;;2.15;;
5559;SDS011;2803;47.916;8.074;2023-08-30T16:31:20;2.27;;;1.60;;
5559;SDS011;2803;47.916;8.074;2023-08-30T16:46:03;4.40;;;2.20;;
5559;SDS011;2803;47.916;8.074;2023-08-30T16:48:30;8.40;;;2.47;;
5559;SDS011;2803;47.916;8.074;2023-08-30T16:50:56;6.87;;;2.70;;
5559;SDS011;2803;47.916;8.074;2023-08-30T16:53:23;4.40;;;2.13;;
5559;SDS011;2803;47.916;8.074;2023-08-30T16:55:49;4.37;;;2.40;;
5559;SDS011;2803;47.916;8.074;2023-08-30T16:58:16;5.60;;;2.60;;
5559;SDS011;2803;47.916;8.074;2023-08-30T17:00:43;5.80;;;2.57;;
5559;SDS011;2803;47.916;8.074;2023-08-30T17:03:11;2.20;;;1.63;;
5559;SDS011;2803;47.916;8.074;2023-08-30T17:05:37;5.00;;;2.20;;
5559;SDS011;2803;47.916;8.074;2023-08-30T17:08:05;4.33;;;2.33;;
5559;SDS011;2803;47.916;8.074;2023-08-30T17:10:31;6.90;;;2.50;;
5559;SDS011;2803;47.916;8.074;2023-08-30T17:12:58;4.00;;;2.37;;
5559;SDS011;2803;47.916;8.074;2023-08-30T17:15:25;4.17;;;1.83;;
5559;SDS011;2803;47.916;8.074;2023-08-30T17:17:52;3.03;;;2.10;;
5559;SDS011;2803;47.916;8.074;2023-08-30T17:20:20;3.93;;;2.20;;
5559;SDS011;2803;47.916;8.074;2023-08-30T17:22:46;6.57;;;2.97;;
5559;SDS011;2803;47.916;8.074;2023-08-30T17:25:13;7.77;;;2.60;;
5559;SDS011;2803;47.916;8.074;2023-08-30T17:27:40;6.67;;;2.87;;
5559;SDS011;2803;47.916;8.074;2023-08-30T17:30:08;6.30;;;2.33;;
5559;SDS011;2803;47.916;8.074;2023-08-30T17:32:38;11.63;;;2.00;;
5559;SDS011;2803;47.916;8.074;2023-08-30T17:35:05;9.03;;;2.70;;
5559;SDS011;2803;47.916;8.074;2023-08-30T17:37:33;2.93;;;2.50;;
5559;SDS011;2803;47.916;8.074;2023-08-30T17:40:00;5.40;;;2.57;;